Time;durP1;ratioP1;P1;durP2;ratioP2;P2;SDS_P1;SDS_P2;PMS_P1;PMS_P2;Temp;Humidity;BMP_temperature;BMP_pressure;BME280_temperature;BME280_humidity;BME280_pressure;Samples;Min_cycle;Max_cycle;Signal;HPM_P1;HPM_P2
2023/08/19 00:01:24;;;;;;;14.73;13.20;;;22.50;45.30;;;;;;20685988;28;20030;-43
2023/08/19 00:11:25;;;;;;;13.82;12.43;;;22.60;48.30;;;;;;20687827;28;20038;-42
2023/08/19 00:21:25;;;;;;;13.80;12.40;;;22.60;42.90;;;;;;20685316;28;20062;-42
2023/08/19 00:31:27;;;;;;;16.80;13.48;;;22.70;38.60;;;;;;20683302;28;20053;-43
2023/08/19 00:41:27;;;;;;;11.43;10.32;;;22.70;38.40;;;;;;20674191;28;20391;-43
2023/08/19 00:51:28;;;;;;;13.88;11.63;;;22.70;31.20;;;;;;20679481;28;20050;-43
2023/08/19 01:01:30;;;;;;;11.95;10.68;;;22.60;33.80;;;;;;20678297;28;20064;-43
2023/08/19 01:11:48;;;;;;;13.07;11.68;;;22.60;38.30;;;;;;20678629;28;20124;-42
2023/08/19 01:21:56;;;;;;;13.15;11.68;;;22.60;39.40;;;;;;20679861;28;20046;-43
2023/08/19 01:31:57;;;;;;;15.40;13.07;;;22.70;34.60;;;;;;20677528;28;20072;-42
2023/08/19 01:41:58;;;;;;;12.65;11.25;;;22.90;28.40;;;;;;20676006;28;20125;-43
2023/08/19 01:51:58;;;;;;;14.35;11.55;;;22.90;23.00;;;;;;20668046;28;20056;-43
2023/08/19 02:01:59;;;;;;;11.98;10.75;;;23.00;20.40;;;;;;20655537;28;20041;-43
2023/08/19 02:12:00;;;;;;;14.60;12.70;;;23.10;15.80;;;;;;20674725;28;20457;-43
2023/08/19 02:22:01;;;;;;;15.98;12.55;;;23.10;13.00;;;;;;20667835;28;20054;-43
2023/08/19 02:32:01;;;;;;;14.15;12.65;;;23.10;10.60;;;;;;20681154;28;20053;-43
2023/08/19 02:42:02;;;;;;;15.95;11.48;;;23.20;7.00;;;;;;20679384;28;20046;-44
2023/08/19 02:52:04;;;;;;;17.37;14.03;;;23.20;6.10;;;;;;20669077;28;20171;-43
2023/08/19 03:02:04;;;;;;;16.13;14.35;;;23.20;6.60;;;;;;20673495;28;20472;-44
2023/08/19 03:12:06;;;;;;;17.38;14.95;;;23.20;5.10;;;;;;20673156;28;20075;-42
2023/08/19 03:22:06;;;;;;;15.20;13.35;;;23.20;1.00;;;;;;20680367;28;20033;-44
2023/08/19 03:32:07;;;;;;;14.90;13.05;;;23.30;1.00;;;;;;20677568;28;20072;-43
2023/08/19 03:42:07;;;;;;;15.73;13.80;;;23.20;1.00;;;;;;20672480;28;20050;-42
2023/08/19 03:52:10;;;;;;;16.17;14.45;;;23.20;1.00;;;;;;20676159;28;20077;-43
2023/08/19 04:02:11;;;;;;;17.55;15.65;;;23.20;1.00;;;;;;20679327;28;20046;-44
2023/08/19 04:12:12;;;;;;;18.52;15.07;;;23.10;1.00;;;;;;20681030;28;20037;-43
2023/08/19 04:22:14;;;;;;;18.02;15.07;;;23.00;5.20;;;;;;20694493;28;20048;-43
2023/08/19 04:32:15;;;;;;;17.75;15.05;;;23.10;2.80;;;;;;20687524;28;20049;-43
2023/08/19 04:42:15;;;;;;;15.73;13.85;;;23.20;1.00;;;;;;20684777;28;20493;-43
2023/08/19 04:52:16;;;;;;;18.73;16.35;;;23.20;1.00;;;;;;20681484;28;20046;-43
2023/08/19 05:02:16;;;;;;;16.17;13.35;;;23.20;1.00;;;;;;20681985;28;20034;-43
2023/08/19 05:12:17;;;;;;;15.38;12.43;;;23.30;1.00;;;;;;20676487;28;20042;-43
2023/08/19 05:22:17;;;;;;;12.88;11.57;;;23.30;1.00;;;;;;20674333;28;20445;-43
2023/08/19 05:32:18;;;;;;;14.98;12.90;;;23.30;1.00;;;;;;20688087;28;20041;-43
2023/08/19 05:42:18;;;;;;;16.55;14.68;;;23.20;1.00;;;;;;20677140;28;20057;-42
2023/08/19 05:52:19;;;;;;;19.13;16.38;;;23.10;1.00;;;;;;20677385;28;20076;-43
2023/08/19 06:02:19;;;;;;;22.90;17.05;;;23.00;10.30;;;;;;20680354;28;20049;-43
2023/08/19 06:12:20;;;;;;;15.20;13.60;;;22.90;22.50;;;;;;20675155;28;22487;-43
2023/08/19 06:22:21;;;;;;;18.13;14.80;;;22.90;30.60;;;;;;20667697;28;20053;-43
2023/08/19 06:32:21;;;;;;;21.42;16.95;;;23.00;27.30;;;;;;20674597;28;20685;-44
2023/08/19 06:42:22;;;;;;;18.38;16.00;;;23.10;25.00;;;;;;20687523;28;20348;-43
2023/08/19 06:52:24;;;;;;;18.25;15.00;;;23.40;10.80;;;;;;20644656;28;20038;-43
2023/08/19 07:02:28;;;;;;;17.95;14.82;;;23.70;6.40;;;;;;20667389;28;20655;-43
2023/08/19 07:12:29;;;;;;;16.45;14.23;;;23.90;1.00;;;;;;20662825;28;20048;-43
2023/08/19 07:22:30;;;;;;;13.25;11.85;;;24.30;1.00;;;;;;20673067;28;20069;-43
2023/08/19 07:32:34;;;;;;;14.35;12.15;;;24.40;1.00;;;;;;20640290;28;20603;-43
2023/08/19 07:42:35;;;;;;;13.38;11.60;;;24.60;1.00;;;;;;20677113;28;20533;-43
2023/08/19 07:52:36;;;;;;;14.50;12.38;;;24.80;1.00;;;;;;20671992;28;20579;-44
2023/08/19 08:02:36;;;;;;;13.95;11.70;;;24.80;1.00;;;;;;20655171;28;20041;-44
2023/08/19 08:12:37;;;;;;;13.75;11.98;;;24.70;1.00;;;;;;20694854;28;20092;-44
2023/08/19 08:22:37;;;;;;;13.40;12.00;;;24.80;1.00;;;;;;20693884;28;20045;-43
2023/08/19 08:32:38;;;;;;;14.38;12.88;;;25.00;1.00;;;;;;20681046;28;20050;-43
2023/08/19 08:42:40;;;;;;;14.00;12.52;;;25.10;1.00;;;;;;20682002;28;20045;-43
2023/08/19 08:52:41;;;;;;;19.05;14.88;;;25.10;1.00;;;;;;20676918;28;20045;-43
2023/08/19 09:02:44;;;;;;;16.85;13.95;;;25.30;1.00;;;;;;20680687;28;20069;-42
2023/08/19 09:12:58;;;;;;;18.88;14.90;;;25.40;1.00;;;;;;20676681;28;20073;-43
2023/08/19 09:23:07;;;;;;;15.55;11.85;;;26.20;1.00;;;;;;20687798;28;20049;-42
2023/08/19 09:33:07;;;;;;;15.45;11.70;;;26.50;1.00;;;;;;20677454;28;20144;-42
2023/08/19 09:43:08;;;;;;;13.00;8.88;;;26.00;1.00;;;;;;20672027;28;20033;-42
2023/08/19 09:53:15;;;;;;;9.65;5.72;;;25.50;1.00;;;;;;20673633;28;20042;-43
2023/08/19 10:03:16;;;;;;;7.30;4.88;;;25.40;1.00;;;;;;20692333;28;20057;-42
2023/08/19 10:13:18;;;;;;;6.68;4.88;;;25.60;1.00;;;;;;20705080;28;20041;-43
2023/08/19 10:23:21;;;;;;;5.30;3.85;;;25.40;1.00;;;;;;20715610;28;20693;-44
2023/08/19 10:33:32;;;;;;;6.20;4.38;;;25.90;1.00;;;;;;20722348;28;20478;-43
2023/08/19 10:43:52;;;;;;;5.80;4.05;;;25.70;1.00;;;;;;20684921;28;20064;-43
2023/08/19 10:54:06;;;;;;;7.22;3.80;;;25.50;1.00;;;;;;20676037;28;20053;-43
2023/08/19 11:04:07;;;;;;;5.72;3.90;;;25.30;1.00;;;;;;20678187;28;20046;-42
2023/08/19 11:14:07;;;;;;;11.27;5.75;;;25.20;1.00;;;;;;20678713;28;20034;-43
2023/08/19 11:24:09;;;;;;;9.05;5.60;;;25.60;1.00;;;;;;20687305;28;20042;-43
2023/08/19 11:34:11;;;;;;;9.75;5.82;;;25.40;1.00;;;;;;20685854;28;20054;-43
2023/08/19 11:44:12;;;;;;;8.45;5.38;;;25.20;1.00;;;;;;20683883;28;20513;-43
2023/08/19 11:54:13;;;;;;;11.90;7.30;;;25.20;1.00;;;;;;20690150;28;20615;-43
2023/08/19 12:04:15;;;;;;;8.20;5.25;;;25.00;1.00;;;;;;20682254;28;20552;-43
2023/08/19 12:14:16;;;;;;;8.18;3.92;;;24.70;1.00;;;;;;20654726;28;20053;-43
2023/08/19 12:24:16;;;;;;;7.00;2.53;;;24.40;1.00;;;;;;20674168;28;20751;-43
2023/08/19 12:34:17;;;;;;;5.50;2.58;;;24.20;1.00;;;;;;20680127;28;20049;-43
2023/08/19 12:44:17;;;;;;;5.57;1.77;;;24.10;1.00;;;;;;20679015;28;20123;-43
2023/08/19 12:54:18;;;;;;;6.97;2.72;;;23.90;1.00;;;;;;20680232;28;20573;-43
2023/08/19 13:04:18;;;;;;;7.70;2.15;;;23.60;1.00;;;;;;20682290;28;20520;-43
2023/08/19 13:14:19;;;;;;;6.15;1.77;;;23.20;1.00;;;;;;20673265;28;20121;-43
2023/08/19 13:24:19;;;;;;;6.30;1.92;;;22.80;1.00;;;;;;20671799;28;20095;-43
2023/08/19 13:34:20;;;;;;;8.98;1.88;;;22.60;1.00;;;;;;20671081;28;20124;-43
2023/08/19 13:44:25;;;;;;;6.60;1.77;;;22.40;1.00;;;;;;20679829;28;20056;-43
2023/08/19 13:54:25;;;;;;;6.88;1.63;;;22.50;1.00;;;;;;20665084;28;20038;-42
2023/08/19 14:04:26;;;;;;;12.63;2.25;;;22.80;1.00;;;;;;20686559;28;20045;-43
2023/08/19 14:14:27;;;;;;;11.88;2.65;;;22.70;1.00;;;;;;20711989;28;20111;-43
2023/08/19 14:24:27;;;;;;;10.10;1.85;;;22.70;1.00;;;;;;20713083;28;20041;-43
2023/08/19 14:34:28;;;;;;;8.05;2.20;;;22.90;1.00;;;;;;20703024;28;20065;-43
2023/08/19 14:44:29;;;;;;;7.57;1.73;;;23.30;1.00;;;;;;20708518;28;20435;-43
2023/08/19 14:54:30;;;;;;;9.18;2.35;;;23.70;1.00;;;;;;20701757;28;20068;-43
2023/08/19 15:04:30;;;;;;;10.88;2.63;;;23.80;1.00;;;;;;20712220;28;20064;-43
2023/08/19 15:14:31;;;;;;;7.07;1.90;;;23.90;1.00;;;;;;20717337;28;20042;-43
2023/08/19 15:24:31;;;;;;;6.85;2.05;;;24.30;1.00;;;;;;20717842;28;20543;-43
2023/08/19 15:34:32;;;;;;;9.50;2.30;;;24.30;1.00;;;;;;20703921;28;20525;-43
2023/08/19 15:44:32;;;;;;;6.45;1.80;;;24.30;1.00;;;;;;20711545;28;20393;-43
2023/08/19 15:54:33;;;;;;;6.05;1.90;;;24.30;1.00;;;;;;20692890;28;20046;-44
2023/08/19 16:04:33;;;;;;;8.50;2.38;;;24.20;1.00;;;;;;20718358;28;20065;-43
2023/08/19 16:14:34;;;;;;;3.97;1.35;;;24.10;1.00;;;;;;20723691;28;20577;-43
2023/08/19 16:24:34;;;;;;;5.88;1.77;;;24.00;1.00;;;;;;20724535;28;20041;-44
2023/08/19 16:34:35;;;;;;;5.57;1.45;;;23.80;1.00;;;;;;20725460;28;20135;-43
2023/08/19 16:44:35;;;;;;;5.68;1.65;;;23.60;1.00;;;;;;20722569;28;20034;-43
2023/08/19 16:54:36;;;;;;;7.40;2.55;;;23.60;1.00;;;;;;20732366;28;20045;-43
2023/08/19 17:04:36;;;;;;;5.20;1.60;;;23.40;1.00;;;;;;20734695;28;20065;-44
2023/08/19 17:14:37;;;;;;;5.60;1.40;;;23.10;1.00;;;;;;20720644;28;20061;-43
2023/08/19 17:24:38;;;;;;;6.03;1.88;;;23.00;1.00;;;;;;20727686;28;20060;-43
2023/08/19 17:34:38;;;;;;;3.83;1.50;;;22.70;1.00;;;;;;20713370;28;20098;-43
2023/08/19 17:44:43;;;;;;;5.07;1.20;;;22.60;1.00;;;;;;20685435;28;20038;-43
2023/08/19 17:54:43;;;;;;;5.20;1.20;;;22.50;1.00;;;;;;20726227;28;20046;-43
2023/08/19 18:04:44;;;;;;;2.88;0.88;;;22.30;1.00;;;;;;20706610;28;20418;-43
2023/08/19 18:14:44;;;;;;;2.58;0.70;;;21.90;1.00;;;;;;20708671;28;20052;-43
2023/08/19 18:24:45;;;;;;;5.80;1.50;;;21.90;1.00;;;;;;20710956;28;20568;-43
2023/08/19 18:34:45;;;;;;;3.45;1.58;;;21.60;1.00;;;;;;20720914;28;20050;-43
2023/08/19 18:44:46;;;;;;;5.22;1.40;;;21.40;1.00;;;;;;20709382;28;20041;-43
2023/08/19 18:54:47;;;;;;;3.67;1.35;;;21.20;1.00;;;;;;20714203;28;20041;-43
2023/08/19 19:04:48;;;;;;;5.95;1.25;;;21.00;1.00;;;;;;20706473;28;20045;-43
2023/08/19 19:14:48;;;;;;;7.47;1.60;;;20.90;1.00;;;;;;20700385;28;20061;-43
2023/08/19 19:24:49;;;;;;;5.82;1.33;;;20.60;1.00;;;;;;20707288;28;20053;-43
2023/08/19 19:34:49;;;;;;;3.15;1.10;;;20.50;1.00;;;;;;20701374;28;20077;-43
2023/08/19 19:44:50;;;;;;;7.57;1.83;;;20.30;1.00;;;;;;20723019;28;20047;-43
2023/08/19 19:54:52;;;;;;;4.25;1.42;;;20.20;1.00;;;;;;20711397;28;20055;-43
2023/08/19 20:04:55;;;;;;;2.85;1.00;;;20.30;1.00;;;;;;20722251;28;20033;-43
2023/08/19 20:14:56;;;;;;;4.85;1.13;;;20.20;1.00;;;;;;20715023;28;20041;-43
2023/08/19 20:24:56;;;;;;;6.15;1.25;;;20.00;1.00;;;;;;20722941;28;20042;-43
2023/08/19 20:34:57;;;;;;;4.47;1.42;;;19.80;1.00;;;;;;20725615;28;20600;-43
2023/08/19 20:44:58;;;;;;;6.15;1.98;;;19.60;1.00;;;;;;20736638;28;20497;-43
2023/08/19 20:54:58;;;;;;;9.80;2.10;;;19.40;1.00;;;;;;20717310;28;20053;-43
2023/08/19 21:04:59;;;;;;;5.47;1.70;;;19.30;1.00;;;;;;20734152;28;20175;-43
2023/08/19 21:14:59;;;;;;;5.05;1.70;;;19.30;1.00;;;;;;20714013;28;20046;-43
2023/08/19 21:25:00;;;;;;;4.78;1.67;;;19.40;1.00;;;;;;20671846;28;20092;-43
2023/08/19 21:35:00;;;;;;;5.85;1.73;;;19.50;1.00;;;;;;20676435;28;20049;-43
2023/08/19 21:45:01;;;;;;;4.82;1.50;;;19.60;1.00;;;;;;20675879;28;20183;-43
2023/08/19 21:55:01;;;;;;;7.47;1.73;;;19.60;1.00;;;;;;20677279;28;20038;-43
2023/08/19 22:05:02;;;;;;;7.78;2.65;;;19.50;1.00;;;;;;20688817;28;20038;-43
2023/08/19 22:15:03;;;;;;;4.90;2.37;;;19.40;1.00;;;;;;20663848;28;20038;-43
2023/08/19 22:25:04;;;;;;;5.80;2.00;;;19.50;1.00;;;;;;20683771;28;20486;-43
2023/08/19 22:35:04;;;;;;;7.23;2.17;;;19.60;1.00;;;;;;20674448;28;20357;-43
2023/08/19 22:45:05;;;;;;;5.93;2.08;;;19.40;1.00;;;;;;20665441;28;20833;-43
2023/08/19 22:55:06;;;;;;;6.10;1.90;;;19.50;1.00;;;;;;20665814;28;20040;-43
2023/08/19 23:05:07;;;;;;;7.20;2.17;;;19.40;1.00;;;;;;20665461;28;20033;-43
2023/08/19 23:15:08;;;;;;;6.95;1.73;;;19.50;1.00;;;;;;20661616;28;20045;-43
2023/08/19 23:25:09;;;;;;;5.90;1.98;;;19.30;1.00;;;;;;20665073;28;20605;-43
2023/08/19 23:35:09;;;;;;;7.63;2.13;;;19.30;1.00;;;;;;20665608;28;20430;-43
2023/08/19 23:45:11;;;;;;;8.85;1.85;;;19.30;1.00;;;;;;20658913;28;20048;-43
2023/08/19 23:55:12;;;;;;;6.32;1.40;;;19.40;1.00;;;;;;20660588;28;20072;-43
